Terminal Aerodrome Forecast
Issued by NWS

Home | Current Version | Previous Version | Text Only | Print | Product List | Glossary On
Versions: 1 2 3 4 5 6 7 8 9 10 11 12 13 14 15 16 17 18 19 20 21 22 23 24 25 26 27 28 29
000
FTUS43 KDVN 281700 RRA
TAFBRL
TAF
KBRL 281743Z 2818/0118 13006KT P6SM SCT200
     FM282000 14007KT P6SM BKN150
     FM282300 12007KT P6SM VCSH SCT030 OVC050
      TEMPO 2823/0103 2SM -SN BR BKN020 OVC030
     FM011030 16005KT 5SM BR VCSH BKN015 OVC030=

USA.gov is the U.S. government's official web portal to all federal, state and local government web resources and services.